Time;durP1;ratioP1;P1;durP2;ratioP2;P2;SDS_P1;SDS_P2;PMS_P1;PMS_P2;Temp;Humidity;BMP_temperature;BMP_pressure;BME280_temperature;BME280_humidity;BME280_pressure;Samples;Min_cycle;Max_cycle;Signal;HPM_P1;HPM_P2
2023/04/12 00:00:41;;;;;;;7.40;4.85;;;15.60;78.30;;;;;;10983541;32;20015;-75
2023/04/12 00:06:47;;;;;;;6.75;4.57;;;15.50;78.50;;;;;;10983409;32;20400;-75
2023/04/12 00:12:49;;;;;;;10.15;8.93;;;15.30;78.50;;;;;;10982564;32;20015;-75
2023/04/12 00:18:51;;;;;;;10.38;6.87;;;15.40;78.60;;;;;;10969474;32;20049;-75
2023/04/12 00:24:53;;;;;;;8.48;6.30;;;15.40;79.20;;;;;;10982865;32;20349;-75
2023/04/12 00:30:55;;;;;;;7.03;4.55;;;15.30;79.50;;;;;;10982552;32;20324;-75
2023/04/12 00:36:57;;;;;;;8.45;6.25;;;15.20;79.40;;;;;;10981654;32;20050;-75
2023/04/12 00:42:59;;;;;;;8.85;5.97;;;15.20;79.40;;;;;;10981266;32;20010;-75
2023/04/12 00:49:02;;;;;;;11.10;5.87;;;15.30;79.20;;;;;;10982299;32;20380;-75
2023/04/12 00:55:05;;;;;;;6.85;4.95;;;15.30;79.10;;;;;;10980369;32;20037;-75
2023/04/12 01:01:09;;;;;;;7.43;5.78;;;15.30;79.60;;;;;;10981875;32;20368;-75
2023/04/12 01:07:21;;;;;;;6.87;4.75;;;15.20;79.60;;;;;;10968203;32;20014;-75
2023/04/12 01:13:39;;;;;;;8.43;6.00;;;15.30;79.30;;;;;;10981460;32;20041;-75
2023/04/12 01:19:52;;;;;;;11.75;6.25;;;15.30;79.10;;;;;;10980042;32;20041;-75
2023/04/12 01:26:09;;;;;;;14.63;5.82;;;15.40;79.60;;;;;;10980621;32;20038;-75
2023/04/12 01:32:11;;;;;;;8.95;6.43;;;15.30;80.30;;;;;;10981735;32;20324;-75
2023/04/12 01:38:14;;;;;;;9.98;6.93;;;15.20;80.40;;;;;;10967949;32;20045;-75
2023/04/12 01:44:18;;;;;;;11.65;9.23;;;15.20;80.70;;;;;;10965499;32;20108;-75
2023/04/12 01:50:35;;;;;;;9.75;6.37;;;15.00;80.90;;;;;;10980180;32;20053;-75
2023/04/12 01:56:42;;;;;;;10.82;8.18;;;14.90;81.10;;;;;;10979755;32;20014;-74
2023/04/12 02:02:45;;;;;;;13.77;8.70;;;14.90;80.90;;;;;;10978928;32;20018;-75
2023/04/12 02:08:48;;;;;;;8.27;5.82;;;14.80;80.90;;;;;;10976173;32;20317;-75
2023/04/12 02:14:51;;;;;;;7.32;5.07;;;14.80;80.80;;;;;;10991602;32;20033;-69
2023/04/12 02:20:53;;;;;;;8.23;5.07;;;14.70;81.30;;;;;;10979093;32;20041;-69
2023/04/12 02:26:57;;;;;;;8.93;5.85;;;14.80;80.80;;;;;;10977567;32;20334;-70
2023/04/12 02:33:01;;;;;;;6.43;4.60;;;14.70;80.30;;;;;;10992472;32;20042;-70
2023/04/12 02:39:04;;;;;;;6.37;3.72;;;14.60;80.60;;;;;;10989396;32;20010;-70
2023/04/12 02:45:09;;;;;;;8.07;4.53;;;14.60;80.50;;;;;;10991064;32;20022;-70
2023/04/12 02:51:11;;;;;;;7.70;4.57;;;14.50;80.40;;;;;;10991684;32;20022;-69
2023/04/12 02:57:15;;;;;;;8.13;5.15;;;14.50;80.80;;;;;;10978417;32;20018;-70
2023/04/12 03:03:17;;;;;;;5.25;3.60;;;14.50;81.10;;;;;;10991800;32;20046;-69
2023/04/12 03:09:20;;;;;;;5.28;3.65;;;14.50;80.90;;;;;;10987712;32;20045;-70
2023/04/12 03:15:23;;;;;;;6.37;4.97;;;14.20;81.10;;;;;;10991825;32;20018;-69
2023/04/12 03:21:27;;;;;;;5.18;3.25;;;14.30;81.00;;;;;;10968332;32;20069;-70
2023/04/12 03:27:30;;;;;;;7.35;5.25;;;14.30;80.50;;;;;;10985397;32;20313;-70
2023/04/12 03:33:33;;;;;;;6.18;4.00;;;14.20;80.30;;;;;;10985153;32;20045;-70
2023/04/12 03:39:36;;;;;;;7.75;3.60;;;14.30;79.90;;;;;;10984927;32;20018;-70
2023/04/12 03:45:42;;;;;;;5.47;3.55;;;14.20;80.00;;;;;;10984869;32;20316;-69
2023/04/12 03:51:45;;;;;;;8.02;6.20;;;14.20;80.00;;;;;;10983761;32;20037;-70
2023/04/12 03:57:47;;;;;;;7.75;5.30;;;14.20;79.60;;;;;;10983706;32;20465;-69
2023/04/12 04:03:50;;;;;;;5.80;4.32;;;14.30;79.00;;;;;;10984170;32;20019;-70
2023/04/12 04:09:54;;;;;;;4.82;3.15;;;14.40;79.50;;;;;;10971136;32;20278;-70
2023/04/12 04:16:05;;;;;;;6.95;4.85;;;14.20;79.50;;;;;;10969821;32;20050;-70
2023/04/12 04:22:09;;;;;;;6.22;4.10;;;14.20;79.70;;;;;;10984134;32;20045;-70
2023/04/12 04:28:14;;;;;;;9.77;7.57;;;14.20;79.50;;;;;;10983122;32;20014;-70
2023/04/12 04:34:17;;;;;;;8.30;5.40;;;14.30;79.20;;;;;;10983137;32;20054;-69
2023/04/12 04:40:22;;;;;;;6.40;4.12;;;14.20;79.40;;;;;;10982629;32;20027;-70
2023/04/12 04:46:24;;;;;;;8.07;5.57;;;14.20;79.40;;;;;;10982550;32;20019;-70
2023/04/12 04:52:26;;;;;;;8.40;5.70;;;14.20;79.40;;;;;;10981629;32;20018;-70
2023/04/12 04:58:30;;;;;;;8.43;6.10;;;14.20;79.10;;;;;;10981889;32;20022;-69
2023/04/12 05:04:33;;;;;;;9.00;6.70;;;14.20;79.10;;;;;;10980614;32;20101;-70
2023/04/12 05:10:35;;;;;;;8.23;6.12;;;14.20;79.00;;;;;;10968388;32;20484;-70
2023/04/12 05:16:37;;;;;;;8.45;5.78;;;14.20;79.00;;;;;;10981445;32;20076;-69
2023/04/12 05:22:41;;;;;;;6.32;4.22;;;14.30;78.80;;;;;;10980655;32;20049;-70
2023/04/12 05:28:44;;;;;;;5.50;3.97;;;14.30;79.20;;;;;;10979021;32;20019;-70
2023/04/12 05:34:46;;;;;;;9.60;6.68;;;14.30;79.30;;;;;;10980856;32;20427;-70
2023/04/12 05:40:49;;;;;;;8.57;5.12;;;14.20;79.50;;;;;;10966176;32;20026;-69
2023/04/12 05:46:51;;;;;;;10.40;7.95;;;14.30;79.40;;;;;;10980609;32;20049;-70
2023/04/12 05:52:54;;;;;;;8.20;4.95;;;14.50;79.10;;;;;;10965800;32;20023;-69
2023/04/12 05:59:03;;;;;;;7.10;5.37;;;14.70;78.70;;;;;;10979662;32;20018;-69
2023/04/12 06:05:06;;;;;;;6.87;4.70;;;14.90;79.40;;;;;;10960470;32;20445;-70
2023/04/12 06:11:10;;;;;;;8.25;5.32;;;15.10;80.70;;;;;;10977807;32;20404;-69
2023/04/12 06:17:12;;;;;;;10.85;5.43;;;15.30;81.20;;;;;;10964934;32;20321;-69
2023/04/12 06:23:16;;;;;;;16.30;12.75;;;15.30;81.30;;;;;;10978636;32;20014;-69
2023/04/12 06:29:18;;;;;;;12.63;9.02;;;15.10;80.80;;;;;;10979272;32;20430;-68
2023/04/12 06:35:21;;;;;;;7.45;5.97;;;14.80;81.40;;;;;;10977307;32;20027;-69
2023/04/12 06:41:24;;;;;;;8.13;5.90;;;14.90;81.80;;;;;;10979239;32;20050;-68
2023/04/12 06:47:32;;;;;;;8.95;7.07;;;15.10;82.00;;;;;;10978490;32;20463;-68
2023/04/12 06:53:37;;;;;;;8.80;6.15;;;15.20;82.40;;;;;;10979772;32;20341;-68
2023/04/12 06:59:39;;;;;;;11.40;9.35;;;15.30;82.40;;;;;;10984428;32;20041;-69
2023/04/12 07:05:41;;;;;;;11.80;6.75;;;15.30;81.50;;;;;;10985631;32;20286;-69
2023/04/12 07:11:43;;;;;;;8.77;6.50;;;15.20;81.70;;;;;;10981049;32;20041;-70
2023/04/12 07:17:45;;;;;;;12.00;9.20;;;15.20;81.30;;;;;;10985322;32;20019;-70
2023/04/12 07:23:50;;;;;;;11.57;8.13;;;15.20;81.60;;;;;;10984662;32;20019;-69
2023/04/12 07:29:52;;;;;;;15.38;10.90;;;15.00;80.30;;;;;;10984938;32;20015;-69
2023/04/12 07:35:54;;;;;;;12.25;6.87;;;15.20;80.40;;;;;;10969555;32;20042;-69
2023/04/12 07:41:56;;;;;;;11.45;8.63;;;15.10;80.60;;;;;;10971589;32;20305;-69
2023/04/12 07:47:58;;;;;;;14.05;10.52;;;15.20;80.10;;;;;;10984267;32;20053;-69
2023/04/12 07:54:00;;;;;;;8.32;5.95;;;15.10;79.70;;;;;;10648930;27;8657598;-69
2023/04/12 08:00:04;;;;;;;6.37;4.90;;;15.20;79.60;;;;;;10908326;32;20022;-69
2023/04/12 08:06:14;;;;;;;11.00;6.28;;;15.30;80.30;;;;;;10907322;32;20051;-70
2023/04/12 08:12:16;;;;;;;13.00;10.48;;;15.50;81.10;;;;;;10893060;32;20039;-69
2023/04/12 08:18:18;;;;;;;12.55;8.82;;;15.60;80.90;;;;;;10906205;32;20050;-69
2023/04/12 08:24:20;;;;;;;8.77;6.70;;;15.50;80.20;;;;;;10907353;32;20023;-69
2023/04/12 08:30:25;;;;;;;7.30;5.45;;;15.80;80.30;;;;;;10905106;32;20435;-69
2023/04/12 08:36:27;;;;;;;8.65;6.70;;;16.00;80.20;;;;;;10906062;32;20038;-70
2023/04/12 08:42:33;;;;;;;8.60;6.62;;;16.20;79.70;;;;;;10889140;32;20369;-68
2023/04/12 08:48:36;;;;;;;9.75;5.37;;;16.30;79.10;;;;;;10905591;32;20019;-69
2023/04/12 08:54:38;;;;;;;9.77;5.68;;;16.40;79.20;;;;;;10891693;32;20062;-69
2023/04/12 09:00:41;;;;;;;8.50;4.65;;;16.50;79.00;;;;;;10892926;32;20015;-69
2023/04/12 09:06:43;;;;;;;9.90;6.30;;;16.50;79.20;;;;;;10906186;32;20020;-69
2023/04/12 09:12:46;;;;;;;12.63;5.82;;;16.50;79.00;;;;;;10906190;32;20045;-68
2023/04/12 09:18:50;;;;;;;8.75;4.72;;;16.50;79.10;;;;;;10903350;32;20329;-68
2023/04/12 09:24:52;;;;;;;9.93;5.62;;;16.50;79.50;;;;;;10892772;32;20046;-69
2023/04/12 09:30:56;;;;;;;6.68;4.47;;;16.60;80.30;;;;;;10905313;32;20019;-69
2023/04/12 09:36:58;;;;;;;8.48;6.05;;;16.60;79.90;;;;;;10904093;32;20047;-68
2023/04/12 09:43:01;;;;;;;7.78;5.43;;;16.60;79.80;;;;;;10904249;32;20279;-68
2023/04/12 09:49:04;;;;;;;8.50;5.57;;;16.70;80.00;;;;;;10900064;32;20015;-69
2023/04/12 09:55:09;;;;;;;7.53;5.32;;;16.80;80.50;;;;;;10903421;32;20050;-69
2023/04/12 10:01:11;;;;;;;9.55;6.57;;;16.90;79.90;;;;;;10904644;32;20045;-68
2023/04/12 10:07:14;;;;;;;13.60;7.90;;;17.00;79.70;;;;;;10904584;32;20042;-69
2023/04/12 10:13:17;;;;;;;23.10;11.15;;;17.00;79.00;;;;;;10900073;32;20023;-68
2023/04/12 10:19:21;;;;;;;12.65;7.53;;;16.90;77.60;;;;;;10902927;32;20050;-69
2023/04/12 10:25:26;;;;;;;9.63;7.30;;;16.80;77.00;;;;;;10889464;32;20057;-68
2023/04/12 10:31:29;;;;;;;10.93;8.77;;;16.90;77.40;;;;;;10911567;32;20167;-68
2023/04/12 10:38:02;;;;;;;7.72;5.95;;;16.90;77.60;;;;;;10911304;32;20042;-68
2023/04/12 10:44:27;;;;;;;8.80;5.82;;;16.80;76.10;;;;;;10720286;33;20041;-68
2023/04/12 10:50:31;;;;;;;13.40;7.55;;;16.90;77.60;;;;;;10719100;33;20068;-68
2023/04/12 10:56:37;;;;;;;6.07;5.00;;;17.10;78.20;;;;;;10721426;33;20366;-69
2023/04/12 11:03:04;;;;;;;11.95;7.47;;;17.10;78.20;;;;;;10713674;33;20075;-69
2023/04/12 11:09:24;;;;;;;10.50;5.68;;;17.40;78.00;;;;;;10702984;33;20056;-69
2023/04/12 11:15:27;;;;;;;9.52;6.60;;;17.40;77.00;;;;;;10711275;33;20040;-68
2023/04/12 11:21:30;;;;;;;7.55;5.10;;;17.40;78.00;;;;;;10772795;33;20032;-68
2023/04/12 11:27:33;;;;;;;7.87;5.10;;;17.40;76.20;;;;;;10793965;33;20103;-69
2023/04/12 11:33:39;;;;;;;7.47;4.72;;;17.50;76.20;;;;;;10781046;33;20059;-69
2023/04/12 11:39:42;;;;;;;6.95;5.00;;;17.50;75.20;;;;;;10792374;33;20074;-68
2023/04/12 11:45:45;;;;;;;6.40;3.58;;;17.50;76.50;;;;;;10850291;32;20042;-68
2023/04/12 11:51:47;;;;;;;7.50;5.82;;;17.60;76.80;;;;;;10870714;32;20074;-69
2023/04/12 11:57:54;;;;;;;6.18;3.80;;;17.70;77.20;;;;;;10867895;32;20016;-68
2023/04/12 12:03:58;;;;;;;6.45;3.80;;;17.90;76.50;;;;;;10870329;32;20015;-69
2023/04/12 12:10:00;;;;;;;7.80;5.03;;;18.20;73.90;;;;;;10857594;32;20015;-68
2023/04/12 12:16:07;;;;;;;8.48;5.50;;;18.40;71.40;;;;;;10870458;32;20043;-69
2023/04/12 12:22:16;;;;;;;9.15;6.95;;;18.90;70.20;;;;;;10867344;32;20078;-69
2023/04/12 12:28:23;;;;;;;6.32;3.60;;;19.50;69.20;;;;;;10869031;32;20094;-68
2023/04/12 12:34:25;;;;;;;4.93;3.33;;;19.70;68.70;;;;;;10900994;32;20333;-69
2023/04/12 12:40:31;;;;;;;5.57;3.78;;;19.80;69.00;;;;;;10906102;32;20023;-69
2023/04/12 12:46:33;;;;;;;4.55;3.17;;;19.70;70.00;;;;;;10905659;32;20359;-73
2023/04/12 12:52:35;;;;;;;8.57;4.43;;;19.50;69.40;;;;;;10904744;32;20431;-73
2023/04/12 12:58:37;;;;;;;4.07;2.92;;;19.40;69.80;;;;;;10900401;32;20023;-73
2023/04/12 13:04:39;;;;;;;7.72;4.95;;;19.30;69.70;;;;;;10906223;32;20374;-73
2023/04/12 13:10:42;;;;;;;9.02;3.83;;;19.30;71.80;;;;;;10904363;32;20027;-73
2023/04/12 13:16:45;;;;;;;5.15;3.55;;;19.30;72.10;;;;;;10917284;32;20030;-73
2023/04/12 13:22:47;;;;;;;6.03;3.83;;;19.20;70.00;;;;;;10942599;32;20085;-73
2023/04/12 13:28:50;;;;;;;6.50;4.62;;;19.20;70.70;;;;;;10942450;32;20015;-73
2023/04/12 13:34:52;;;;;;;10.48;6.25;;;19.10;70.10;;;;;;10904304;32;20111;-73
2023/04/12 13:40:55;;;;;;;10.57;5.43;;;18.90;68.90;;;;;;10886205;32;20022;-73
2023/04/12 13:46:57;;;;;;;9.18;6.35;;;18.80;68.30;;;;;;10902437;32;20022;-73
2023/04/12 13:53:00;;;;;;;8.80;5.93;;;18.90;68.70;;;;;;10903956;32;20365;-73
2023/04/12 13:59:02;;;;;;;7.35;5.18;;;18.80;68.40;;;;;;10891316;32;20024;-73
2023/04/12 14:05:05;;;;;;;7.53;5.37;;;18.80;68.30;;;;;;10903576;32;20299;-72
2023/04/12 14:11:07;;;;;;;6.65;4.78;;;18.80;67.50;;;;;;10904498;32;20041;-73
2023/04/12 14:17:10;;;;;;;12.18;7.53;;;18.80;67.80;;;;;;10899904;32;20024;-73
2023/04/12 14:23:12;;;;;;;8.55;6.00;;;19.10;67.80;;;;;;10890796;32;20019;-73
2023/04/12 14:29:14;;;;;;;5.10;2.90;;;19.10;67.60;;;;;;10903923;32;20428;-73
2023/04/12 14:35:17;;;;;;;13.98;8.40;;;19.20;68.40;;;;;;10903868;32;20015;-73
2023/04/12 14:41:19;;;;;;;7.57;5.07;;;19.20;67.80;;;;;;10903047;32;20338;-73
2023/04/12 14:47:21;;;;;;;7.07;3.75;;;19.10;68.00;;;;;;10903769;32;20023;-73
2023/04/12 14:53:24;;;;;;;9.18;6.10;;;19.10;68.40;;;;;;10902946;32;20401;-73
2023/04/12 14:59:26;;;;;;;5.85;4.18;;;19.00;67.00;;;;;;10888130;32;20045;-73
2023/04/12 15:05:28;;;;;;;9.00;6.50;;;18.90;67.60;;;;;;10894785;32;20428;-73
2023/04/12 15:11:34;;;;;;;7.78;4.78;;;18.80;66.80;;;;;;10901855;32;20023;-73
2023/04/12 15:17:36;;;;;;;9.13;5.72;;;18.70;67.50;;;;;;10908381;32;20298;-73
2023/04/12 15:23:40;;;;;;;8.13;5.75;;;18.70;68.10;;;;;;10910025;32;20089;-73
2023/04/12 15:29:42;;;;;;;9.80;5.22;;;18.60;67.90;;;;;;10908659;32;20019;-73
2023/04/12 15:35:44;;;;;;;7.78;4.35;;;18.50;67.50;;;;;;10905794;32;20386;-73
2023/04/12 15:41:46;;;;;;;13.60;5.32;;;18.50;67.40;;;;;;10907946;32;20371;-73
2023/04/12 15:47:49;;;;;;;7.37;4.47;;;18.20;67.40;;;;;;10909196;32;20046;-73
2023/04/12 15:53:52;;;;;;;11.32;5.40;;;18.20;67.90;;;;;;10936620;27;20049;-73
2023/04/12 15:59:56;;;;;;;7.05;4.37;;;18.30;67.90;;;;;;10933466;32;20049;-73
2023/04/12 16:05:58;;;;;;;8.43;5.20;;;18.20;68.20;;;;;;10946350;32;20401;-74
2023/04/12 16:12:01;;;;;;;6.43;4.10;;;18.20;67.90;;;;;;10930823;32;20065;-73
2023/04/12 16:18:03;;;;;;;5.18;3.20;;;18.20;68.80;;;;;;10944605;32;20016;-74
2023/04/12 16:24:06;;;;;;;7.95;4.22;;;18.20;69.10;;;;;;10945299;32;20042;-73
2023/04/12 16:30:10;;;;;;;6.05;4.32;;;18.30;69.90;;;;;;10945358;32;20014;-73
2023/04/12 16:36:15;;;;;;;7.18;4.65;;;18.20;69.90;;;;;;10930006;32;20030;-69
2023/04/12 16:42:20;;;;;;;6.55;2.92;;;18.10;69.90;;;;;;10941445;32;20051;-69
2023/04/12 16:48:22;;;;;;;9.10;4.45;;;18.10;70.30;;;;;;10944671;32;20023;-70
2023/04/12 16:54:24;;;;;;;4.28;2.50;;;18.30;71.30;;;;;;10929257;32;20038;-69
2023/04/12 17:00:28;;;;;;;3.65;2.53;;;18.20;71.50;;;;;;10944275;32;20045;-69
2023/04/12 17:06:32;;;;;;;6.10;3.20;;;18.30;71.90;;;;;;10943927;32;20042;-69
2023/04/12 17:12:35;;;;;;;5.12;3.22;;;18.40;72.30;;;;;;10915819;32;20031;-73
2023/04/12 17:18:39;;;;;;;8.10;5.25;;;18.30;72.50;;;;;;10929416;32;20053;-73
2023/04/12 17:24:41;;;;;;;5.87;3.00;;;18.30;72.70;;;;;;10925959;32;20035;-74
2023/04/12 17:30:43;;;;;;;4.80;3.10;;;18.30;73.00;;;;;;10939105;32;20010;-74
2023/04/12 17:36:45;;;;;;;5.65;4.00;;;18.20;73.10;;;;;;10941752;32;20027;-70
2023/04/12 17:42:47;;;;;;;5.80;3.50;;;18.20;73.30;;;;;;10928293;32;20057;-70
2023/04/12 17:48:49;;;;;;;3.78;2.75;;;18.20;73.60;;;;;;10940277;32;20062;-70
2023/04/12 17:54:52;;;;;;;4.90;3.85;;;18.10;74.00;;;;;;10941405;32;20019;-70
2023/04/12 18:00:54;;;;;;;6.15;3.22;;;18.00;74.50;;;;;;10940860;32;20031;-70
2023/04/12 18:06:56;;;;;;;3.65;2.37;;;17.90;74.80;;;;;;10928185;32;20026;-70
2023/04/12 18:12:58;;;;;;;4.78;2.97;;;18.00;74.90;;;;;;10942735;32;20031;-69
2023/04/12 18:19:02;;;;;;;7.50;3.58;;;17.90;75.20;;;;;;10942474;32;20050;-70
2023/04/12 18:25:05;;;;;;;6.22;4.30;;;18.00;75.00;;;;;;10941786;32;20019;-74
2023/04/12 18:31:07;;;;;;;6.97;3.67;;;17.90;75.10;;;;;;10928086;32;20023;-74
2023/04/12 18:37:10;;;;;;;6.45;4.25;;;17.80;75.40;;;;;;10941855;32;20231;-74
2023/04/12 18:43:12;;;;;;;8.60;4.47;;;17.90;76.10;;;;;;10941031;32;20045;-74
2023/04/12 18:49:14;;;;;;;5.78;4.10;;;17.90;76.20;;;;;;10944325;32;20023;-74
2023/04/12 18:55:16;;;;;;;4.68;3.70;;;17.70;76.40;;;;;;10947639;32;20045;-74
2023/04/12 19:01:20;;;;;;;6.82;4.53;;;17.70;76.60;;;;;;10929653;32;20053;-74
2023/04/12 19:07:23;;;;;;;9.88;4.53;;;17.50;76.80;;;;;;10947803;32;20023;-74
2023/04/12 19:13:25;;;;;;;7.15;5.43;;;17.50;77.00;;;;;;10948147;32;20038;-74
2023/04/12 19:19:28;;;;;;;8.60;5.50;;;17.60;77.10;;;;;;10920108;32;20053;-74
2023/04/12 19:25:34;;;;;;;7.40;4.78;;;17.60;76.90;;;;;;10941548;32;20040;-74
2023/04/12 19:31:46;;;;;;;6.10;4.73;;;17.70;77.00;;;;;;10931747;32;20388;-74
2023/04/12 19:37:49;;;;;;;6.28;4.50;;;17.70;76.90;;;;;;10947361;32;20015;-74
2023/04/12 19:43:59;;;;;;;6.68;5.18;;;17.70;77.30;;;;;;10947187;32;20337;-75
2023/04/12 19:50:04;;;;;;;9.60;6.00;;;17.70;78.10;;;;;;10933886;32;20019;-74
2023/04/12 19:56:08;;;;;;;13.30;6.87;;;17.70;78.30;;;;;;10971820;32;20031;-74
2023/04/12 20:02:12;;;;;;;13.75;6.03;;;17.70;78.40;;;;;;10956533;32;20030;-74
2023/04/12 20:08:17;;;;;;;8.80;5.50;;;17.70;78.10;;;;;;10984190;32;20026;-74
2023/04/12 20:14:25;;;;;;;7.25;5.65;;;17.50;78.30;;;;;;10983276;32;20034;-75
2023/04/12 20:20:27;;;;;;;11.70;6.50;;;17.50;78.10;;;;;;10982565;32;20053;-74
2023/04/12 20:26:32;;;;;;;9.85;6.93;;;17.50;77.90;;;;;;10970430;32;20042;-75
2023/04/12 20:32:36;;;;;;;9.45;6.47;;;17.40;77.90;;;;;;10983038;32;20014;-74
2023/04/12 20:38:40;;;;;;;13.27;6.78;;;17.30;78.10;;;;;;10968200;32;20019;-75
2023/04/12 20:44:43;;;;;;;8.75;6.30;;;17.30;78.20;;;;;;10982550;32;20391;-74
2023/04/12 20:50:45;;;;;;;8.60;6.25;;;17.30;78.10;;;;;;10968159;32;20443;-74
2023/04/12 20:56:52;;;;;;;10.85;7.90;;;17.30;78.20;;;;;;10967417;32;20015;-75
2023/04/12 21:02:57;;;;;;;8.48;7.00;;;17.30;78.30;;;;;;10968897;32;20010;-74
2023/04/12 21:09:00;;;;;;;10.93;7.28;;;17.30;78.10;;;;;;10981546;32;20397;-75
2023/04/12 21:15:04;;;;;;;11.00;6.60;;;17.30;78.00;;;;;;10979427;32;20018;-75
2023/04/12 21:21:06;;;;;;;12.63;9.38;;;17.30;78.00;;;;;;10981156;32;20061;-75
2023/04/12 21:27:08;;;;;;;11.85;8.90;;;17.20;77.40;;;;;;10981422;32;20014;-75
2023/04/12 21:33:15;;;;;;;8.93;6.93;;;17.00;76.70;;;;;;10980762;32;20045;-75
2023/04/12 21:39:17;;;;;;;8.50;6.40;;;17.00;77.60;;;;;;10980501;32;20023;-75
2023/04/12 21:45:20;;;;;;;8.90;5.87;;;17.10;78.00;;;;;;10980369;32;20400;-72
2023/04/12 21:51:23;;;;;;;11.63;6.47;;;17.20;78.00;;;;;;10979765;32;20014;-74
2023/04/12 21:57:32;;;;;;;7.53;5.78;;;17.20;77.80;;;;;;10965356;32;20376;-74
2023/04/12 22:03:35;;;;;;;9.77;5.55;;;17.10;77.90;;;;;;10971761;32;20026;-75
2023/04/12 22:09:41;;;;;;;6.10;4.40;;;17.10;78.20;;;;;;10979779;32;20010;-73
2023/04/12 22:15:51;;;;;;;8.57;6.07;;;17.10;78.10;;;;;;10980251;32;20065;-73
2023/04/12 22:22:01;;;;;;;5.32;3.35;;;17.00;78.40;;;;;;10978424;32;20422;-72
2023/04/12 22:28:04;;;;;;;10.55;5.78;;;16.90;78.90;;;;;;10972245;32;20026;-73
2023/04/12 22:34:06;;;;;;;5.20;3.42;;;16.80;79.30;;;;;;10987156;32;20026;-72
2023/04/12 22:40:11;;;;;;;5.95;3.90;;;16.80;79.30;;;;;;10983123;32;20022;-72
2023/04/12 22:46:15;;;;;;;9.00;5.45;;;16.80;79.30;;;;;;10972053;32;20124;-72
2023/04/12 22:52:23;;;;;;;6.07;3.95;;;16.70;79.30;;;;;;10971451;32;20077;-72
2023/04/12 22:58:26;;;;;;;6.07;4.07;;;16.60;79.50;;;;;;10986344;32;20430;-72
2023/04/12 23:04:28;;;;;;;5.72;3.85;;;16.60;80.30;;;;;;10986034;32;20400;-72
2023/04/12 23:10:32;;;;;;;9.68;5.35;;;16.60;79.90;;;;;;10985262;32;20077;-72
2023/04/12 23:16:41;;;;;;;6.85;5.57;;;16.60;80.40;;;;;;10985156;32;20033;-73
2023/04/12 23:22:56;;;;;;;6.70;4.32;;;16.50;81.10;;;;;;10972457;32;20022;-73
2023/04/12 23:29:00;;;;;;;9.07;7.07;;;16.40;81.20;;;;;;10984575;32;20030;-74
2023/04/12 23:35:02;;;;;;;8.05;5.60;;;16.40;80.80;;;;;;10984134;32;20317;-73
2023/04/12 23:41:06;;;;;;;13.05;9.50;;;16.10;81.00;;;;;;10984796;32;20030;-73
2023/04/12 23:47:08;;;;;;;12.27;8.98;;;16.00;81.10;;;;;;10980508;32;20409;-73
2023/04/12 23:53:11;;;;;;;8.15;6.65;;;15.80;81.10;;;;;;10918298;27;20099;-72
2023/04/12 23:59:13;;;;;;;12.07;8.48;;;15.70;81.80;;;;;;10871425;32;20436;-72
